^^
Your Local Weather - Clay, NY Station Historical Data
Daily Summary for February 22, 2017 Units:  Metric    English   Both
« Previous Day
Next Day »
Daily Weekly Monthly Yearly Custom
  High: Low: Average:
Temperature: 14.6 °C 1.2 °C 7.1 °C
Dew Point: 3.9 °C -0.9 °C 1.6 °C
Humidity: 87% 46% 70%
Wind Speed: 4.8km/h 0km/h 1.1km/h
Wind Gust: 9.7km/h - -
Wind- - ENE
Pressure: 1014.4 hPa 1008 hPa -
Precipitation: 0 mm    
Historical Graphs
 
 
Tabular Data for February 22, 2017
Time Temperature Dew Point Pressure Wind Wind Speed Wind Gust Humidity Rainfall Rate (Hourly) solar
00:04 3.2 °C 0.8 °C 1014.1 hPa Calm   3.2 km/h 84% 0 mm 0 W/m2
00:10 3.2 °C 0.9 °C 1014.1 hPa Calm     85% 0 mm 0 W/m2
00:16 3.1 °C 0.8 °C 1014.1 hPa Calm     85% 0 mm 0 W/m2
00:22 2.9 °C 0.7 °C 1014.1 hPa Calm     85% 0 mm 0 W/m2
00:28 2.8 °C 0.7 °C 1014.1 hPa Calm     86% 0 mm 0 W/m2
00:33 2.7 °C 0.6 °C 1014.1 hPa Calm     86% 0 mm 0 W/m2
00:40 2.7 °C 0.6 °C 1014.4 hPa Calm     86% 0 mm 0 W/m2
00:46 2.6 °C 0.4 °C 1014.1 hPa Calm     86% 0 mm 0 W/m2
00:52 2.4 °C 0.5 °C 1014.1 hPa Calm   1.6 km/h 87% 0 mm 0 W/m2
00:58 2.4 °C 0.5 °C 1014.1 hPa Calm   1.6 km/h 87% 0 mm 0 W/m2
01:04 2.4 °C 0.5 °C 1014.1 hPa Calm     87% 0 mm 0 W/m2
01:10 2.4 °C 0.5 °C 1014.1 hPa Calm     87% 0 mm 0 W/m2
01:15 2.4 °C 0.5 °C 1013.8 hPa Calm     87% 0 mm 0 W/m2
01:22 2.6 °C 0.6 °C 1013.8 hPa Calm     87% 0 mm 0 W/m2
01:28 2.4 °C 0.3 °C 1013.8 hPa Calm     86% 0 mm 0 W/m2
01:34 2.3 °C 0.2 °C 1013.8 hPa Calm     86% 0 mm 0 W/m2
01:39 2.2 °C 0.1 °C 1013.8 hPa Calm     86% 0 mm 0 W/m2
01:46 2 °C 0.1 °C 1013.8 hPa Calm     87% 0 mm 0 W/m2
01:52 1.9 °C 0 °C 1013.8 hPa Calm   1.6 km/h 87% 0 mm 0 W/m2
01:58 1.9 °C -0.2 °C 1013.8 hPa ENE 1.6 km/h 1.6 km/h 86% 0 mm 0 W/m2
02:04 1.8 °C -0.3 °C 1013.8 hPa ENE 1.6 km/h 3.2 km/h 86% 0 mm 0 W/m2
02:10 1.8 °C -0.3 °C 1013.4 hPa ENE 3.2 km/h 3.2 km/h 86% 0 mm 0 W/m2
02:16 1.7 °C -0.4 °C 1013.4 hPa ENE 1.6 km/h 3.2 km/h 86% 0 mm 0 W/m2
02:22 1.7 °C -0.6 °C 1013.4 hPa ENE 1.6 km/h 1.6 km/h 85% 0 mm 0 W/m2
02:28 1.6 °C -0.7 °C 1013.4 hPa Calm   1.6 km/h 85% 0 mm 0 W/m2
02:33 1.4 °C -0.7 °C 1013.4 hPa Calm   3.2 km/h 86% 0 mm 0 W/m2
02:40 1.3 °C -0.8 °C 1013.4 hPa Calm     86% 0 mm 0 W/m2
02:45 1.3 °C -0.8 °C 1013.1 hPa Calm     86% 0 mm 0 W/m2
02:52 1.2 °C -0.9 °C 1013.1 hPa Calm     86% 0 mm 0 W/m2
02:58 1.3 °C -0.8 °C 1013.4 hPa Calm     86% 0 mm 0 W/m2
03:04 1.3 °C -0.6 °C 1013.4 hPa Calm     87% 0 mm 0 W/m2
03:10 1.4 °C -0.6 °C 1013.4 hPa Calm     87% 0 mm 0 W/m2
03:16 1.5 °C -0.4 °C 1013.4 hPa Calm     87% 0 mm 0 W/m2
03:22 1.6 °C -0.4 °C 1013.4 hPa Calm     87% 0 mm 0 W/m2
03:28 1.7 °C -0.3 °C 1013.1 hPa Calm   1.6 km/h 87% 0 mm 0 W/m2
03:34 1.9 °C -0.2 °C 1013.1 hPa East 1.6 km/h 3.2 km/h 86% 0 mm 0 W/m2
03:40 2.2 °C 0.1 °C 1013.1 hPa Calm   4.8 km/h 86% 0 mm 0 W/m2
03:46 2.7 °C 0.2 °C 1013.1 hPa East 1.6 km/h 4.8 km/h 84% 0 mm 0 W/m2
03:52 2.7 °C 0.1 °C 1013.1 hPa East 1.6 km/h 1.6 km/h 83% 0 mm 0 W/m2
03:58 2.7 °C 0.1 °C 1013.1 hPa ENE 1.6 km/h 1.6 km/h 83% 0 mm 0 W/m2
04:03 2.5 °C -0.1 °C 1013.1 hPa Calm   1.6 km/h 83% 0 mm 0 W/m2
04:09 2.3 °C -0.1 °C 1013.1 hPa ENE 1.6 km/h 1.6 km/h 84% 0 mm 0 W/m2
04:16 2.4 °C 0 °C 1013.1 hPa ENE 1.6 km/h 1.6 km/h 84% 0 mm 0 W/m2
04:22 2.6 °C 0 °C 1013.1 hPa ENE 1.6 km/h 1.6 km/h 83% 0 mm 0 W/m2
04:28 3 °C 0.1 °C 1013.1 hPa East 1.6 km/h 3.2 km/h 81% 0 mm 0 W/m2
04:34 3 °C 0.1 °C 1013.1 hPa Calm   1.6 km/h 81% 0 mm 0 W/m2
04:40 2.9 °C 0 °C 1013.1 hPa Calm     81% 0 mm 0 W/m2
04:46 2.9 °C 0 °C 1013.1 hPa Calm   3.2 km/h 81% 0 mm 0 W/m2
04:52 3.2 °C 0.2 °C 1013.1 hPa Calm     81% 0 mm 0 W/m2
04:58 3.4 °C 0.4 °C 1012.8 hPa ENE 1.6 km/h 3.2 km/h 81% 0 mm 0 W/m2
05:04 3.5 °C 0.2 °C 1013.1 hPa ENE 1.6 km/h 1.6 km/h 79% 0 mm 0 W/m2
05:09 3.6 °C 0.1 °C 1013.1 hPa Calm     78% 0 mm 0 W/m2
05:16 3.4 °C -0.1 °C 1013.1 hPa Calm     78% 0 mm 0 W/m2
05:22 3.4 °C 0.1 °C 1013.1 hPa Calm     79% 0 mm 0 W/m2
05:28 3.3 °C 0.2 °C 1013.1 hPa Calm     80% 0 mm 0 W/m2
05:34 3.2 °C 0.1 °C 1013.1 hPa Calm     80% 0 mm 0 W/m2
05:40 3.1 °C 0.2 °C 1013.1 hPa Calm     81% 0 mm 0 W/m2
05:45 3.1 °C 0.2 °C 1013.4 hPa Calm     81% 0 mm 0 W/m2
05:52 3.2 °C 0.1 °C 1013.4 hPa Calm     80% 0 mm 0 W/m2
05:58 3.4 °C 0.2 °C 1013.4 hPa Calm   3.2 km/h 79% 0 mm 0 W/m2
06:03 3.4 °C 0.3 °C 1013.4 hPa Calm     80% 0 mm 0 W/m2
06:10 3.4 °C 0.1 °C 1013.4 hPa Calm   1.6 km/h 79% 0 mm 0 W/m2
06:16 3.3 °C 0.2 °C 1013.4 hPa Calm   1.6 km/h 80% 0 mm 0 W/m2
06:22 3.2 °C 0.1 °C 1013.4 hPa Calm   4.8 km/h 80% 0 mm 0 W/m2
06:28 3.2 °C 0.1 °C 1013.1 hPa Calm   4.8 km/h 80% 0 mm 0 W/m2
06:33 3.2 °C 0.1 °C 1013.1 hPa Calm     80% 0 mm 0 W/m2
06:40 3.1 °C 0.2 °C 1013.1 hPa Calm     81% 0 mm 0 W/m2
06:46 3.3 °C 0.1 °C 1013.1 hPa Calm   1.6 km/h 79% 0 mm 0 W/m2
06:52 3.3 °C 0.1 °C 1013.1 hPa Calm     79% 0 mm 0 W/m2
06:58 3.2 °C 0.1 °C 1013.1 hPa Calm   1.6 km/h 80% 0 mm 0 W/m2
07:03 3.3 °C 0 °C 1013.1 hPa Calm   1.6 km/h 79% 0 mm 5 W/m2
07:09 3.4 °C -0.1 °C 1013.1 hPa Calm     78% 0 mm 9 W/m2
07:16 3.5 °C 0 °C 1013.1 hPa East 1.6 km/h 4.8 km/h 78% 0 mm 12 W/m2
07:22 3.4 °C -0.1 °C 1013.1 hPa East 1.6 km/h 1.6 km/h 78% 0 mm 12 W/m2
07:28 3.5 °C -0.2 °C 1013.1 hPa Calm   1.6 km/h 77% 0 mm 16 W/m2
07:33 3.2 °C -0.2 °C 1013.1 hPa Calm     78% 0 mm 26 W/m2
07:40 3.1 °C -0.2 °C 1013.1 hPa Calm     79% 0 mm 33 W/m2
07:46 2.9 °C -0.3 °C 1013.1 hPa ENE 1.6 km/h 1.6 km/h 79% 0 mm 37 W/m2
07:52 3 °C -0.3 °C 1013.1 hPa ENE 1.6 km/h 3.2 km/h 79% 0 mm 81 W/m2
07:58 3.3 °C 0 °C 1013.1 hPa ENE 1.6 km/h 3.2 km/h 79% 0 mm 44 W/m2
08:03 3.3 °C -0.2 °C 1013.1 hPa Calm   1.6 km/h 78% 0 mm 60 W/m2
08:10 3.4 °C -0.1 °C 1013.1 hPa Calm     78% 0 mm 70 W/m2
08:16 3.7 °C 0 °C 1013.4 hPa NNE 1.6 km/h 6.4 km/h 77% 0 mm 134 W/m2
08:22 4.2 °C 0.2 °C 1013.4 hPa NNE 1.6 km/h 1.6 km/h 75% 0 mm 155 W/m2
08:28 4.6 °C 0.2 °C 1013.4 hPa ENE 1.6 km/h 3.2 km/h 73% 0 mm 97 W/m2
08:33 4.8 °C 0.2 °C 1013.4 hPa ENE 1.6 km/h 3.2 km/h 72% 0 mm 97 W/m2
08:40 5 °C 0.2 °C 1013.4 hPa ENE 3.2 km/h 3.2 km/h 71% 0 mm 141 W/m2
08:45 5.2 °C 0.3 °C 1013.4 hPa ENE 1.6 km/h 3.2 km/h 71% 0 mm 95 W/m2
08:52 5.3 °C 0.2 °C 1013.4 hPa NNE 1.6 km/h 6.4 km/h 70% 0 mm 88 W/m2
08:58 5.3 °C 0.2 °C 1013.1 hPa NNE 1.6 km/h 6.4 km/h 70% 0 mm 79 W/m2
09:04 5.3 °C 0.1 °C 1013.1 hPa East 3.2 km/h 4.8 km/h 69% 0 mm 90 W/m2
09:09 5.3 °C 0.2 °C 1013.4 hPa ENE 3.2 km/h 8 km/h 70% 0 mm 83 W/m2
09:16 5.3 °C 0.3 °C 1013.4 hPa ENE 3.2 km/h 8 km/h 70% 0 mm 74 W/m2
09:22 5.5 °C 0.4 °C 1013.4 hPa ENE 1.6 km/h 3.2 km/h 70% 0 mm 105 W/m2
09:28 5.7 °C 0.6 °C 1013.1 hPa ENE 1.6 km/h 4.8 km/h 70% 0 mm 137 W/m2
09:34 5.8 °C 0.4 °C 1013.1 hPa ESE 3.2 km/h 4.8 km/h 68% 0 mm 178 W/m2
09:39 6.4 °C 0.9 °C 1013.1 hPa SE 3.2 km/h 3.2 km/h 68% 0 mm 197 W/m2
09:46 6.7 °C 0.8 °C 1013.1 hPa ENE 3.2 km/h 3.2 km/h 66% 0 mm 244 W/m2
09:52 7 °C 0.9 °C 1013.1 hPa ENE 4.8 km/h 4.8 km/h 65% 0 mm 517 W/m2
09:58 7.3 °C 0.9 °C 1013.1 hPa ENE 3.2 km/h 6.4 km/h 64% 0 mm 237 W/m2
10:04 7.4 °C 1 °C 1012.8 hPa ENE 3.2 km/h 6.4 km/h 64% 0 mm 232 W/m2
10:10 7.8 °C 1 °C 1012.8 hPa East 4.8 km/h 4.8 km/h 62% 0 mm 575 W/m2
10:15 7.9 °C 1.5 °C 1012.8 hPa ESE 4.8 km/h 6.4 km/h 64% 0 mm 188 W/m2
10:22 8.4 °C 1.1 °C 1012.8 hPa East 3.2 km/h 4.8 km/h 60% 0 mm 526 W/m2
10:28 8.5 °C 0.9 °C 1012.8 hPa ENE 3.2 km/h 6.4 km/h 59% 0 mm 621 W/m2
10:34 8.9 °C 1.6 °C 1012.8 hPa East 3.2 km/h 4.8 km/h 60% 0 mm 592 W/m2
10:39 8.9 °C 1.6 °C 1012.4 hPa ESE 3.2 km/h 3.2 km/h 60% 0 mm 179 W/m2
10:46 9.3 °C 1.5 °C 1012.1 hPa ESE 3.2 km/h 4.8 km/h 58% 0 mm 550 W/m2
10:52 9.8 °C 2.4 °C 1012.1 hPa East 1.6 km/h 3.2 km/h 60% 0 mm 555 W/m2
10:58 9.9 °C 1.8 °C 1012.1 hPa NE 3.2 km/h 4.8 km/h 57% 0 mm 570 W/m2
11:04 9.7 °C 1.1 °C 1012.1 hPa ENE 4.8 km/h 6.4 km/h 55% 0 mm 578 W/m2
11:10 10.5 °C 2.1 °C 1012.1 hPa East 3.2 km/h 4.8 km/h 56% 0 mm 512 W/m2
11:15 11.3 °C 2.6 °C 1012.1 hPa NE 1.6 km/h 6.4 km/h 55% 0 mm 599 W/m2
11:22 10.9 °C 1.9 °C 1012.1 hPa ENE 3.2 km/h 8 km/h 54% 0 mm 431 W/m2
11:28 10.8 °C 1.6 °C 1012.1 hPa East 3.2 km/h 8 km/h 53% 0 mm 294 W/m2
11:34 10.9 °C 2 °C 1012.1 hPa NE 3.2 km/h 4.8 km/h 54% 0 mm 297 W/m2
11:45 11.3 °C 1.8 °C 1011.4 hPa NE 1.6 km/h 4.8 km/h 52% 0 mm 397 W/m2
11:52 11.6 °C 2.9 °C 1011.1 hPa East 3.2 km/h 8 km/h 55% 0 mm 642 W/m2
11:58 11.8 °C 3.1 °C 1011.1 hPa East 4.8 km/h 8 km/h 55% 0 mm 622 W/m2
12:04 11.9 °C 2.1 °C 1010.7 hPa ENE 4.8 km/h 4.8 km/h 51% 0 mm 606 W/m2
12:10 12.1 °C 2 °C 1010.7 hPa East 4.8 km/h 4.8 km/h 50% 0 mm 612 W/m2
12:16 12.6 °C 3.2 °C 1010.4 hPa ENE 4.8 km/h 8 km/h 53% 0 mm 617 W/m2
12:22 12.6 °C 2.1 °C 1010.4 hPa East 4.8 km/h 9.7 km/h 49% 0 mm 629 W/m2
12:28 12.5 °C 2.1 °C 1010 hPa East 4.8 km/h 9.7 km/h 49% 0 mm 629 W/m2
12:34 12.8 °C 2.3 °C 1010 hPa North 4.8 km/h 6.4 km/h 49% 0 mm 605 W/m2
12:40 12.7 °C 2.5 °C 1010 hPa NNE 4.8 km/h 4.8 km/h 50% 0 mm 603 W/m2
12:46 13.2 °C 2.4 °C 1010 hPa NE 3.2 km/h 4.8 km/h 48% 0 mm 598 W/m2
12:52 13.1 °C 2.3 °C 1010 hPa NE 3.2 km/h 4.8 km/h 48% 0 mm 596 W/m2
12:58 13.4 °C 2.3 °C 1010 hPa North 4.8 km/h 4.8 km/h 47% 0 mm 650 W/m2
13:03 13.8 °C 3 °C 1010 hPa East 4.8 km/h 6.4 km/h 48% 0 mm 749 W/m2
13:10 13.3 °C 2.6 °C 1010 hPa ENE 4.8 km/h 4.8 km/h 48% 0 mm 703 W/m2
13:16 13.9 °C 3.6 °C 1010 hPa NNE 4.8 km/h 6.4 km/h 50% 0 mm 425 W/m2
13:22 13.7 °C 3.8 °C 1009.7 hPa ENE 3.2 km/h 6.4 km/h 51% 0 mm 603 W/m2
13:28 13.9 °C 3.3 °C 1009.7 hPa NNE 3.2 km/h 6.4 km/h 49% 0 mm 585 W/m2
13:34 14.2 °C 3.9 °C 1009.4 hPa ENE 3.2 km/h 3.2 km/h 50% 0 mm 580 W/m2
13:40 14.1 °C 2.6 °C 1009.4 hPa ENE 3.2 km/h 6.4 km/h 46% 0 mm 526 W/m2
13:46 14.3 °C 2.8 °C 1009.4 hPa NE 3.2 km/h 6.4 km/h 46% 0 mm 420 W/m2
13:52 14.6 °C 3.1 °C 1009.4 hPa NNE 3.2 km/h 6.4 km/h 46% 0 mm 378 W/m2
13:58 14.4 °C 3.3 °C 1009.4 hPa NNE 3.2 km/h 6.4 km/h 47% 0 mm 308 W/m2
14:03 14.3 °C 2.8 °C 1009.7 hPa NNE 3.2 km/h 4.8 km/h 46% 0 mm 174 W/m2
14:10 13.9 °C 2.8 °C 1009.7 hPa NE 3.2 km/h 3.2 km/h 47% 0 mm 132 W/m2
14:16 13.5 °C 3 °C 1009.4 hPa NE 1.6 km/h 4.8 km/h 49% 0 mm 118 W/m2
14:22 13.2 °C 2.7 °C 1009.4 hPa NE 1.6 km/h 6.4 km/h 49% 0 mm 98 W/m2
14:28 12.9 °C 2.4 °C 1009.4 hPa NE 1.6 km/h 6.4 km/h 49% 0 mm 111 W/m2
14:33 12.8 °C 2.7 °C 1009.4 hPa NE 1.6 km/h 4.8 km/h 50% 0 mm 120 W/m2
14:40 12.8 °C 3.2 °C 1009.4 hPa NE 1.6 km/h 4.8 km/h 52% 0 mm 146 W/m2
14:46 12.7 °C 2.8 °C 1009.4 hPa NE 1.6 km/h 4.8 km/h 51% 0 mm 223 W/m2
14:52 13.1 °C 3.2 °C 1009.4 hPa ENE 3.2 km/h 6.4 km/h 51% 0 mm 193 W/m2
14:58 13.6 °C 2.7 °C 1009 hPa ENE 3.2 km/h 6.4 km/h 48% 0 mm 483 W/m2
15:03 13.9 °C 3.1 °C 1009 hPa NE 3.2 km/h 3.2 km/h 48% 0 mm 455 W/m2
15:10 14.2 °C 3.3 °C 1009 hPa ENE 3.2 km/h 3.2 km/h 48% 0 mm 290 W/m2
15:16 14.1 °C 3.5 °C 1009 hPa East 3.2 km/h 8 km/h 49% 0 mm 192 W/m2
15:22 13.9 °C 2.8 °C 1008.7 hPa ENE 3.2 km/h 3.2 km/h 47% 0 mm 148 W/m2
15:28 13.8 °C 3.6 °C 1008.7 hPa ENE 1.6 km/h 3.2 km/h 50% 0 mm 120 W/m2
15:34 13.8 °C 3.3 °C 1008.7 hPa ENE 1.6 km/h 4.8 km/h 49% 0 mm 188 W/m2
15:38 13.9 °C 3.1 °C 1008.7 hPa East 1.6 km/h 4.8 km/h 48% 0 mm 135 W/m2
15:43 13.9 °C 3.1 °C 1008.7 hPa ESE 3.2 km/h 4.8 km/h 48% 0 mm 111 W/m2
15:49 13.9 °C 3.3 °C 1008.7 hPa ENE 3.2 km/h 3.2 km/h 49% 0 mm 97 W/m2
15:56 13.8 °C 3.5 °C 1008.7 hPa ENE 1.6 km/h 3.2 km/h 50% 0 mm 74 W/m2
16:04 13.6 °C 3.1 °C 1008.7 hPa ENE 1.6 km/h 1.6 km/h 49% 0 mm 70 W/m2
16:09 13.2 °C 3.5 °C 1008.7 hPa ENE 1.6 km/h 1.6 km/h 52% 0 mm 90 W/m2
16:15 13.3 °C 3.1 °C 1008.7 hPa ENE 1.6 km/h 3.2 km/h 50% 0 mm 70 W/m2
16:22 13.3 °C 3.7 °C 1008.7 hPa ENE 1.6 km/h 1.6 km/h 52% 0 mm 39 W/m2
16:28 13.2 °C 3.6 °C 1008.7 hPa Calm   1.6 km/h 52% 0 mm 42 W/m2
16:34 13.1 °C 3.9 °C 1008.7 hPa Calm     54% 0 mm 54 W/m2
16:39 12.7 °C 3.7 °C 1008.7 hPa Calm     54% 0 mm 28 W/m2
16:46 12.6 °C 2.9 °C 1008.7 hPa Calm   3.2 km/h 52% 0 mm 21 W/m2
16:52 12.2 °C 3.4 °C 1008.7 hPa Calm     55% 0 mm 14 W/m2
16:58 12.1 °C 3.3 °C 1008.7 hPa Calm     55% 0 mm 12 W/m2
17:04 11.9 °C 3.1 °C 1008.7 hPa Calm     55% 0 mm 14 W/m2
17:10 11.8 °C 2.8 °C 1008.7 hPa Calm   3.2 km/h 54% 0 mm 32 W/m2
17:16 11.3 °C 3.1 °C 1008.4 hPa NE 1.6 km/h 3.2 km/h 57% 0 mm 26 W/m2
17:22 11.1 °C 3.2 °C 1008.4 hPa NE 1.6 km/h 1.6 km/h 58% 0 mm 19 W/m2
17:28 10.9 °C 3.5 °C 1008.4 hPa Calm   1.6 km/h 60% 0 mm 11 W/m2
17:34 10.9 °C 2.9 °C 1008.4 hPa Calm     58% 0 mm 7 W/m2
17:39 11 °C 3.1 °C 1008.4 hPa Calm     58% 0 mm 5 W/m2
17:46 10.8 °C 3.1 °C 1008.4 hPa Calm     59% 0 mm 0 W/m2
17:52 10.6 °C 3.3 °C 1008.4 hPa Calm     61% 0 mm 0 W/m2
17:58 10.2 °C 3 °C 1008.4 hPa Calm     61% 0 mm 0 W/m2
18:04 9.7 °C 2.8 °C 1008.4 hPa Calm     62% 0 mm 0 W/m2
18:10 9.3 °C 2.8 °C 1008.4 hPa Calm     64% 0 mm 0 W/m2
18:16 8.9 °C 2.7 °C 1008.4 hPa Calm     65% 0 mm 0 W/m2
18:22 8.5 °C 2.5 °C 1008.4 hPa Calm     66% 0 mm 0 W/m2
18:28 8.2 °C 2.4 °C 1008.4 hPa Calm   1.6 km/h 67% 0 mm 0 W/m2
18:33 8.1 °C 2.3 °C 1008.4 hPa Calm     67% 0 mm 0 W/m2
18:39 7.9 °C 2.2 °C 1008.4 hPa Calm     67% 0 mm 0 W/m2
18:46 7.8 °C 2.2 °C 1008.4 hPa Calm     68% 0 mm 0 W/m2
18:52 7.4 °C 2.1 °C 1008.4 hPa Calm     69% 0 mm 0 W/m2
18:58 7.2 °C 2.1 °C 1008.4 hPa Calm   1.6 km/h 70% 0 mm 0 W/m2
19:04 7.2 °C 2.1 °C 1008.4 hPa NE 1.6 km/h 3.2 km/h 70% 0 mm 0 W/m2
19:09 7.2 °C 2.1 °C 1008.4 hPa NE 1.6 km/h 1.6 km/h 70% 0 mm 0 W/m2
19:16 7.3 °C 2.2 °C 1008.4 hPa NE 1.6 km/h 3.2 km/h 70% 0 mm 0 W/m2
19:22 7.3 °C 1.9 °C 1008.4 hPa NE 1.6 km/h 1.6 km/h 69% 0 mm 0 W/m2
19:28 7 °C 1.9 °C 1008.4 hPa Calm   1.6 km/h 70% 0 mm 0 W/m2
19:33 6.8 °C 1.9 °C 1008.4 hPa Calm     71% 0 mm 0 W/m2
19:39 6.7 °C 2 °C 1008.4 hPa Calm     72% 0 mm 0 W/m2
19:46 6.4 °C 1.9 °C 1008.4 hPa Calm     73% 0 mm 0 W/m2
19:52 6.3 °C 2 °C 1008 hPa Calm     74% 0 mm 0 W/m2
19:58 6.3 °C 2.1 °C 1008 hPa Calm     74% 0 mm 0 W/m2
20:04 6.4 °C 2.2 °C 1008.4 hPa Calm     74% 0 mm 0 W/m2
20:10 6.3 °C 1.8 °C 1008.4 hPa Calm     73% 0 mm 0 W/m2
20:15 6.2 °C 1.9 °C 1008.4 hPa Calm     74% 0 mm 0 W/m2
20:22 6.1 °C 1.8 °C 1008.4 hPa Calm     74% 0 mm 0 W/m2
20:28 6.1 °C 2 °C 1008.4 hPa Calm     75% 0 mm 0 W/m2
20:34 6.1 °C 2 °C 1008.4 hPa Calm     75% 0 mm 0 W/m2
20:40 6.1 °C 1.9 °C 1008.4 hPa Calm     75% 0 mm 0 W/m2
20:45 5.9 °C 1.8 °C 1008.4 hPa Calm     75% 0 mm 0 W/m2
20:52 5.9 °C 1.8 °C 1008.4 hPa Calm     75% 0 mm 0 W/m2
20:58 5.8 °C 1.7 °C 1008.4 hPa Calm     75% 0 mm 0 W/m2
21:04 5.7 °C 1.8 °C 1008.4 hPa Calm     76% 0 mm 0 W/m2
21:10 5.7 °C 1.8 °C 1008.4 hPa Calm     76% 0 mm 0 W/m2
21:16 5.8 °C 1.9 °C 1008.4 hPa Calm     76% 0 mm 0 W/m2
21:22 5.8 °C 2.1 °C 1008.4 hPa Calm     77% 0 mm 0 W/m2
21:28 6.1 °C 2.7 °C 1008.4 hPa Calm     79% 0 mm 0 W/m2
21:33 6.3 °C 2.9 °C 1008.4 hPa Calm   1.6 km/h 79% 0 mm 0 W/m2
21:39 6.6 °C 3.2 °C 1008.4 hPa Calm     79% 0 mm 0 W/m2
21:46 6.9 °C 3.5 °C 1008.4 hPa Calm     79% 0 mm 0 W/m2
21:52 7 °C 3.2 °C 1008.4 hPa Calm     77% 0 mm 0 W/m2
21:58 7 °C 3.1 °C 1008.4 hPa Calm     76% 0 mm 0 W/m2
22:04 7 °C 3.2 °C 1008.4 hPa Calm     77% 0 mm 0 W/m2
22:09 6.9 °C 3.2 °C 1008.4 hPa Calm     77% 0 mm 0 W/m2
22:16 6.9 °C 3.1 °C 1008.4 hPa Calm     77% 0 mm 0 W/m2
22:22 6.9 °C 3.2 °C 1008.4 hPa Calm     77% 0 mm 0 W/m2
22:28 6.9 °C 3.2 °C 1008.4 hPa Calm     77% 0 mm 0 W/m2
22:34 6.8 °C 3.3 °C 1008.4 hPa Calm     78% 0 mm 0 W/m2
22:40 6.8 °C 3.2 °C 1008.4 hPa Calm     78% 0 mm 0 W/m2
22:46 6.7 °C 3.2 °C 1008.4 hPa Calm     78% 0 mm 0 W/m2
22:52 6.7 °C 3.3 °C 1008.4 hPa Calm     79% 0 mm 0 W/m2
22:58 6.6 °C 3.2 °C 1008.4 hPa Calm     79% 0 mm 0 W/m2
23:03 6.6 °C 3.2 °C 1008.4 hPa Calm     79% 0 mm 0 W/m2
23:10 6.7 °C 3.3 °C 1008.4 hPa Calm     79% 0 mm 0 W/m2
23:16 6.6 °C 3.2 °C 1008.4 hPa Calm     79% 0 mm 0 W/m2
23:22 6.6 °C 3.2 °C 1008.4 hPa Calm     79% 0 mm 0 W/m2
23:28 6.4 °C 2.8 °C 1008 hPa Calm     78% 0 mm 0 W/m2
23:34 6.4 °C 3.1 °C 1008 hPa Calm     79% 0 mm 0 W/m2
23:40 6.4 °C 3 °C 1008 hPa Calm     79% 0 mm 0 W/m2
23:46 6.4 °C 3 °C 1008 hPa Calm     79% 0 mm 0 W/m2
23:52 6.3 °C 3.1 °C 1008 hPa Calm     80% 0 mm 0 W/m2
23:58 6.2 °C 3 °C 1008 hPa Calm     80% 0 mm 0 W/m2
Country Meadow, Clay, NY, USA
Compliments of Weather Underground - 2 mb